Time;durP1;ratioP1;P1;durP2;ratioP2;P2;SDS_P1;SDS_P2;PMS_P1;PMS_P2;Temp;Humidity;BMP_temperature;BMP_pressure;BME280_temperature;BME280_humidity;BME280_pressure;Samples;Min_cycle;Max_cycle;Signal;HPM_P1;HPM_P2
2022/03/11 00:00:43;;;;;;;20.33;13.20;;;;;;;11.86;54.20;100767.69;5055083;28;20049;-62
2022/03/11 00:03:12;;;;;;;20.10;12.05;;;;;;;11.90;54.27;100760.41;5053811;28;20053;-63
2022/03/11 00:05:40;;;;;;;18.92;12.85;;;;;;;12.00;54.09;100758.16;5055198;28;20072;-63
2022/03/11 00:08:08;;;;;;;20.27;13.27;;;;;;;11.93;54.02;100757.81;5053651;28;20053;-62
2022/03/11 00:10:35;;;;;;;21.85;12.98;;;;;;;12.01;54.14;100747.94;5054611;28;20063;-62
2022/03/11 00:13:03;;;;;;;21.50;12.93;;;;;;;12.02;53.92;100744.84;5055560;28;20052;-62
2022/03/11 00:15:30;;;;;;;20.17;12.40;;;;;;;11.95;54.17;100741.75;5054880;28;20057;-63
2022/03/11 00:17:57;;;;;;;22.52;12.70;;;;;;;11.91;54.55;100748.22;5037190;28;20056;-62
2022/03/11 00:20:25;;;;;;;23.27;13.07;;;;;;;11.76;54.83;100734.88;5054768;28;20048;-62
2022/03/11 00:22:53;;;;;;;27.50;13.50;;;;;;;11.70;55.22;100727.91;5054871;28;20068;-61
2022/03/11 00:25:21;;;;;;;22.27;12.80;;;;;;;11.81;54.75;100738.31;5058641;28;20496;-62
2022/03/11 00:27:49;;;;;;;21.27;13.02;;;;;;;11.85;54.56;100732.94;5057523;28;20053;-61
2022/03/11 00:30:17;;;;;;;18.95;12.88;;;;;;;11.62;55.31;100739.66;5058835;28;20048;-62
2022/03/11 00:32:45;;;;;;;23.98;13.38;;;;;;;11.58;55.47;100733.97;5018932;28;20512;-62
2022/03/11 00:35:13;;;;;;;19.60;13.05;;;;;;;11.37;56.19;100740.41;5017838;28;20058;-62
2022/03/11 00:37:41;;;;;;;19.30;12.98;;;;;;;11.55;55.68;100733.81;5050254;28;20050;-62
2022/03/11 00:40:09;;;;;;;20.48;12.88;;;;;;;11.52;55.79;100718.72;5017478;28;20652;-61
2022/03/11 00:42:36;;;;;;;21.42;13.05;;;;;;;11.43;56.25;100725.31;5019737;28;20544;-63
2022/03/11 00:45:04;;;;;;;20.58;13.10;;;;;;;11.53;55.95;100717.56;5018896;28;20049;-62
2022/03/11 00:47:32;;;;;;;20.08;13.15;;;;;;;11.65;55.78;100719.75;5019024;28;20396;-62
2022/03/11 00:49:59;;;;;;;20.35;13.23;;;;;;;11.69;55.48;100720.72;5018749;28;20528;-62
2022/03/11 00:52:27;;;;;;;22.27;14.10;;;;;;;11.47;56.01;100710.59;5018529;28;20049;-61
2022/03/11 00:54:54;;;;;;;19.85;13.02;;;;;;;11.67;55.37;100704.50;5018589;28;20404;-62
2022/03/11 00:57:22;;;;;;;19.02;13.32;;;;;;;11.57;55.81;100703.94;5019476;28;20057;-62
2022/03/11 00:59:50;;;;;;;20.85;12.82;;;;;;;11.43;56.00;100695.81;5050361;28;20505;-63
2022/03/11 01:02:17;;;;;;;19.52;12.50;;;;;;;11.37;56.51;100696.28;5018459;28;20050;-62
2022/03/11 01:04:47;;;;;;;19.67;13.10;;;;;;;11.45;56.21;100693.53;5018529;28;20046;-62
2022/03/11 01:07:14;;;;;;;17.10;12.53;;;;;;;11.33;56.76;100696.09;5018349;28;20058;-62
2022/03/11 01:09:41;;;;;;;18.92;12.90;;;;;;;11.31;56.83;100696.41;5018460;28;20053;-61
2022/03/11 01:12:09;;;;;;;21.42;11.85;;;;;;;11.46;56.33;100694.34;5016915;28;20061;-62
2022/03/11 01:14:36;;;;;;;21.05;11.82;;;;;;;11.50;56.41;100687.06;5018250;28;20057;-62
2022/03/11 01:17:03;;;;;;;18.58;11.65;;;;;;;11.45;56.29;100677.00;5018287;28;20065;-61
2022/03/11 01:19:31;;;;;;;18.67;11.13;;;;;;;11.56;55.86;100680.28;5049560;28;20134;-61
2022/03/11 01:22:00;;;;;;;17.10;11.17;;;;;;;11.46;56.22;100675.84;5017603;28;20050;-62
2022/03/11 01:24:28;;;;;;;17.67;10.85;;;;;;;11.58;55.83;100677.97;5016732;28;20061;-62
2022/03/11 01:26:55;;;;;;;15.07;10.52;;;;;;;11.41;56.42;100686.22;5017031;28;20069;-62
2022/03/11 01:29:23;;;;;;;16.98;10.73;;;;;;;11.44;56.16;100677.31;5018149;28;20038;-62
2022/03/11 01:31:51;;;;;;;15.77;10.93;;;;;;;11.53;56.22;100675.38;5043371;28;20424;-62
2022/03/11 01:34:20;;;;;;;16.80;10.23;;;;;;;11.46;56.22;100675.03;5057281;28;20381;-62
2022/03/11 01:36:47;;;;;;;17.35;11.38;;;;;;;11.34;56.75;100664.63;5057504;28;20049;-62
2022/03/11 01:39:14;;;;;;;16.52;10.63;;;;;;;11.41;56.37;100656.69;5057437;28;20048;-62
2022/03/11 01:41:42;;;;;;;18.25;10.90;;;;;;;11.39;56.66;100653.44;5057304;28;20053;-61
2022/03/11 01:44:09;;;;;;;17.08;10.48;;;;;;;11.30;57.15;100656.19;5057433;28;20049;-62
2022/03/11 01:46:38;;;;;;;15.70;10.15;;;;;;;11.29;56.92;100653.75;5057238;28;20049;-62
2022/03/11 01:49:07;;;;;;;16.92;10.95;;;;;;;11.34;56.77;100643.38;5056116;28;20041;-62
2022/03/11 01:51:38;;;;;;;17.95;11.40;;;;;;;11.40;56.46;100641.28;5055992;28;20439;-62
2022/03/11 01:54:06;;;;;;;15.20;10.45;;;;;;;11.00;57.61;100636.94;5057363;28;20060;-62
2022/03/11 01:56:35;;;;;;;19.92;11.10;;;;;;;10.93;57.87;100640.13;5057030;28;20053;-61
2022/03/11 01:59:03;;;;;;;16.67;11.45;;;;;;;11.08;57.77;100645.25;5055625;28;20049;-61
2022/03/11 02:01:31;;;;;;;17.13;11.32;;;;;;;11.02;57.93;100641.00;5056937;28;20053;-62
2022/03/11 02:03:58;;;;;;;17.48;11.15;;;;;;;11.11;57.65;100643.78;5056914;28;20053;-62
2022/03/11 02:06:29;;;;;;;18.58;11.55;;;;;;;11.14;57.45;100643.16;5056868;28;20065;-63
2022/03/11 02:08:56;;;;;;;15.82;11.20;;;;;;;11.24;57.26;100649.16;5056968;28;20055;-62
2022/03/11 02:11:24;;;;;;;17.02;11.98;;;;;;;11.09;57.51;100644.09;5055248;28;20538;-62
2022/03/11 02:13:59;;;;;;;17.42;11.73;;;;;;;10.97;57.96;100635.63;5057055;28;20504;-62
2022/03/11 02:16:31;;;;;;;17.65;11.18;;;;;;;11.03;58.09;100645.38;5055519;28;20060;-62
2022/03/11 02:18:59;;;;;;;19.33;10.75;;;;;;;11.07;57.87;100635.34;5056763;28;20041;-61
2022/03/11 02:21:27;;;;;;;17.27;11.32;;;;;;;10.92;58.18;100632.19;5056752;28;20519;-62
2022/03/11 02:23:56;;;;;;;17.83;11.10;;;;;;;10.83;58.77;100632.16;5056831;28;20059;-61
2022/03/11 02:26:27;;;;;;;17.33;11.50;;;;;;;10.98;58.34;100626.22;5056476;28;20058;-61
2022/03/11 02:28:56;;;;;;;16.45;11.60;;;;;;;11.14;57.95;100627.41;5056631;28;20399;-62
2022/03/11 02:31:28;;;;;;;17.07;10.77;;;;;;;10.84;58.75;100621.94;5036405;28;20060;-61
2022/03/11 02:33:55;;;;;;;18.00;11.48;;;;;;;10.72;59.08;100618.97;5028015;28;20065;-62
2022/03/11 02:36:23;;;;;;;16.60;11.05;;;;;;;10.89;58.92;100621.81;5020238;28;20075;-63
2022/03/11 02:38:50;;;;;;;18.17;11.68;;;;;;;10.77;59.15;100616.09;5036414;28;20045;-62
2022/03/11 02:41:18;;;;;;;17.10;11.10;;;;;;;10.96;58.47;100611.97;5034960;28;20053;-62
2022/03/11 02:43:45;;;;;;;17.45;11.38;;;;;;;10.97;58.64;100610.81;5036049;28;20079;-62
2022/03/11 02:46:16;;;;;;;16.60;11.00;;;;;;;10.76;58.83;100607.00;5035626;28;20066;-61
2022/03/11 02:48:43;;;;;;;15.13;10.18;;;;;;;10.95;58.83;100609.50;5035966;28;20045;-62
2022/03/11 02:51:10;;;;;;;17.30;10.68;;;;;;;10.84;59.19;100605.41;5035061;28;20057;-62
2022/03/11 02:53:40;;;;;;;14.98;10.20;;;;;;;10.75;59.33;100612.84;5067668;28;20050;-62
2022/03/11 02:56:10;;;;;;;17.13;11.05;;;;;;;10.63;59.94;100599.66;5036106;28;20064;-62
2022/03/11 02:58:38;;;;;;;15.52;10.45;;;;;;;10.62;60.01;100597.19;5036125;28;20045;-62
2022/03/11 03:01:07;;;;;;;15.75;10.73;;;;;;;10.60;60.03;100592.00;5036161;28;20053;-62
2022/03/11 03:03:34;;;;;;;17.10;10.82;;;;;;;10.49;60.26;100598.94;5036010;28;20109;-62
2022/03/11 03:06:03;;;;;;;20.45;10.40;;;;;;;10.34;61.15;100587.50;5036042;28;20053;-62
2022/03/11 03:08:30;;;;;;;16.95;11.18;;;;;;;10.26;61.31;100591.81;5035657;28;20050;-62
2022/03/11 03:10:57;;;;;;;17.77;10.85;;;;;;;10.26;61.51;100585.50;5035494;28;20045;-61
2022/03/11 03:13:25;;;;;;;16.50;10.57;;;;;;;10.25;61.57;100586.63;5035464;28;20061;-62
2022/03/11 03:15:52;;;;;;;17.30;10.43;;;;;;;10.30;61.43;100569.97;5035864;28;20485;-62
2022/03/11 03:18:19;;;;;;;18.38;11.18;;;;;;;10.46;61.13;100560.19;5033284;28;20049;-61
2022/03/11 03:20:47;;;;;;;16.48;10.43;;;;;;;10.53;60.90;100555.06;5033973;28;20053;-63
2022/03/11 03:23:14;;;;;;;13.93;9.93;;;;;;;10.57;60.48;100556.84;5035997;28;20057;-62
2022/03/11 03:25:41;;;;;;;18.55;11.52;;;;;;;10.58;60.64;100549.41;5035573;28;20412;-62
2022/03/11 03:28:09;;;;;;;19.33;11.18;;;;;;;10.44;61.13;100554.19;5033382;28;20062;-62
2022/03/11 03:30:36;;;;;;;17.33;10.88;;;;;;;10.85;59.92;100549.16;5037948;28;20061;-60
2022/03/11 03:33:03;;;;;;;15.52;10.10;;;;;;;10.62;60.48;100559.47;5055423;28;20052;-61
2022/03/11 03:35:31;;;;;;;19.75;11.30;;;;;;;10.32;61.69;100567.72;5055578;28;20060;-62
2022/03/11 03:37:58;;;;;;;17.13;10.93;;;;;;;10.16;62.01;100567.31;5055083;28;20056;-61
2022/03/11 03:40:26;;;;;;;17.08;10.82;;;;;;;10.15;62.50;100569.25;5053889;28;20468;-62
2022/03/11 03:42:53;;;;;;;16.55;11.18;;;;;;;10.14;62.52;100569.56;5055491;28;20053;-61
2022/03/11 03:45:23;;;;;;;16.38;11.23;;;;;;;10.17;62.41;100563.44;5055312;28;20063;-62
2022/03/11 03:47:50;;;;;;;17.45;11.02;;;;;;;10.27;62.45;100551.34;5055174;28;20063;-62
2022/03/11 03:50:17;;;;;;;16.05;11.40;;;;;;;10.20;62.42;100554.53;5054990;28;20049;-62
2022/03/11 03:52:44;;;;;;;15.70;11.48;;;;;;;10.32;62.32;100551.22;5055267;28;20060;-62
2022/03/11 03:55:12;;;;;;;17.08;10.60;;;;;;;9.98;63.15;100555.34;5055137;28;20057;-62
2022/03/11 03:57:39;;;;;;;17.92;10.65;;;;;;;9.78;64.01;100544.03;5054987;28;20396;-62
2022/03/11 04:00:08;;;;;;;15.95;10.82;;;;;;;9.81;64.21;100546.16;5055064;28;20049;-62
2022/03/11 04:02:48;;;;;;;16.02;10.15;;;;;;;9.74;64.49;100549.34;5055043;28;20056;-62
2022/03/11 04:05:16;;;;;;;18.75;10.32;;;;;;;9.67;65.00;100551.72;5053852;28;20057;-63
2022/03/11 04:07:46;;;;;;;;;;;;;;;9.81;64.71;100548.91;5055226;28;20053;-62
2022/03/11 04:10:14;;;;;;;16.25;10.65;;;;;;;10.17;63.75;100533.16;5086596;28;19921;-62
2022/03/11 04:12:41;;;;;;;16.27;10.10;;;;;;;10.09;63.89;100520.94;5053499;28;20064;-61
2022/03/11 04:15:09;;;;;;;14.63;9.88;;;;;;;10.13;63.63;100526.63;5055027;28;20488;-61
2022/03/11 04:17:36;;;;;;;16.13;9.80;;;;;;;10.08;63.70;100519.34;5054826;28;20061;-61
2022/03/11 04:20:05;;;;;;;16.88;10.32;;;;;;;10.12;63.87;100519.53;5037124;28;20111;-61
2022/03/11 04:22:32;;;;;;;15.43;10.30;;;;;;;9.81;64.66;100526.91;5054964;28;20563;-62
2022/03/11 04:24:59;;;;;;;14.07;9.82;;;;;;;9.58;65.73;100537.09;5054796;28;20070;-62
2022/03/11 04:27:27;;;;;;;16.52;10.13;;;;;;;9.63;65.98;100530.63;5054738;28;20053;-62
2022/03/11 04:29:54;;;;;;;13.73;9.45;;;;;;;9.78;65.53;100528.31;5054527;28;20045;-62
2022/03/11 04:32:23;;;;;;;16.73;10.10;;;;;;;10.07;64.86;100533.38;5036438;28;20056;-62
2022/03/11 04:34:50;;;;;;;15.15;9.18;;;;;;;10.18;64.35;100524.56;5034987;28;20052;-63
2022/03/11 04:37:17;;;;;;;13.32;9.13;;;;;;;10.35;64.00;100520.28;5034985;28;20053;-61
2022/03/11 04:39:44;;;;;;;15.70;8.85;;;;;;;10.05;64.72;100519.13;5033289;28;20046;-62
2022/03/11 04:42:11;;;;;;;14.52;9.85;;;;;;;9.95;65.03;100535.91;5033286;28;20065;-62
2022/03/11 04:44:39;;;;;;;13.93;9.65;;;;;;;9.91;65.14;100532.97;5033473;28;20084;-61
2022/03/11 04:47:06;;;;;;;13.70;9.23;;;;;;;9.97;65.11;100547.41;5033183;28;20176;-62
2022/03/11 04:49:33;;;;;;;14.40;9.57;;;;;;;9.97;65.24;100539.16;5034268;28;20052;-62
2022/03/11 04:52:01;;;;;;;14.30;9.07;;;;;;;9.97;65.34;100533.66;5033463;28;20515;-62
2022/03/11 04:54:28;;;;;;;13.05;9.05;;;;;;;9.93;65.49;100529.91;5032848;28;20061;-62
2022/03/11 04:56:55;;;;;;;14.52;9.10;;;;;;;9.73;65.97;100528.44;5034796;28;20064;-62
2022/03/11 04:59:23;;;;;;;15.30;8.82;;;;;;;9.76;66.23;100535.28;5034437;28;20037;-62
2022/03/11 05:01:50;;;;;;;15.15;9.25;;;;;;;9.65;66.54;100531.16;5034275;28;20053;-62
2022/03/11 05:04:17;;;;;;;14.98;9.02;;;;;;;9.53;66.85;100523.47;5033392;28;20058;-62
2022/03/11 05:06:44;;;;;;;13.82;9.25;;;;;;;9.38;67.45;100518.28;5034463;28;20049;-63
2022/03/11 05:09:12;;;;;;;13.93;9.20;;;;;;;9.33;67.97;100521.16;5034909;28;20401;-62
2022/03/11 05:11:41;;;;;;;14.90;9.38;;;;;;;9.26;67.96;100518.03;5038171;28;20053;-62
2022/03/11 05:14:08;;;;;;;15.77;9.95;;;;;;;9.43;67.85;100511.88;5038229;28;20062;-63
2022/03/11 05:16:35;;;;;;;14.10;8.73;;;;;;;9.52;67.61;100513.56;5036813;28;20052;-62
2022/03/11 05:19:03;;;;;;;15.18;9.18;;;;;;;9.52;67.36;100508.06;5037536;28;20054;-62
2022/03/11 05:21:30;;;;;;;13.05;8.98;;;;;;;9.42;68.08;100502.81;5036553;28;20053;-62
2022/03/11 05:23:57;;;;;;;15.15;8.70;;;;;;;9.55;67.62;100501.97;5038028;28;20056;-62
2022/03/11 05:26:25;;;;;;;15.10;9.65;;;;;;;9.50;67.59;100506.78;5037873;28;20053;-61
2022/03/11 05:28:54;;;;;;;14.25;8.65;;;;;;;9.78;66.78;100502.78;5037769;28;20050;-63
2022/03/11 05:31:22;;;;;;;13.00;8.40;;;;;;;9.81;66.50;100499.41;5046535;28;20045;-62
2022/03/11 05:33:50;;;;;;;14.32;9.07;;;;;;;9.82;66.22;100490.00;5057653;28;20064;-63
2022/03/11 05:36:18;;;;;;;13.07;8.90;;;;;;;9.69;67.10;100480.69;5056326;28;20496;-62
2022/03/11 05:38:45;;;;;;;14.27;7.70;;;;;;;9.60;67.10;100482.59;5057504;28;20064;-62
2022/03/11 05:41:12;;;;;;;12.13;8.40;;;;;;;9.57;67.31;100485.94;5057339;28;20052;-62
2022/03/11 05:43:40;;;;;;;13.60;8.38;;;;;;;9.55;67.54;100479.16;5057579;28;20053;-62
2022/03/11 05:46:07;;;;;;;12.93;8.02;;;;;;;9.96;66.09;100471.47;5057511;28;20057;-62
2022/03/11 05:48:35;;;;;;;14.40;8.07;;;;;;;9.62;66.76;100479.53;5055842;28;20060;-63
2022/03/11 05:51:07;;;;;;;12.95;7.53;;;;;;;9.66;67.22;100480.53;5057300;28;20041;-61
2022/03/11 05:53:34;;;;;;;11.48;7.15;;;;;;;9.70;66.66;100473.25;5057426;28;20059;-63
2022/03/11 05:56:01;;;;;;;10.23;7.18;;;;;;;9.63;67.13;100481.97;5057179;28;20053;-62
2022/03/11 05:58:28;;;;;;;12.57;7.28;;;;;;;9.56;67.15;100481.59;5057078;28;20412;-63
2022/03/11 06:00:56;;;;;;;13.55;7.30;;;;;;;9.33;68.40;100477.19;5057109;28;20052;-62
2022/03/11 06:03:23;;;;;;;16.08;8.32;;;;;;;9.30;68.37;100479.75;5057167;28;20048;-62
2022/03/11 06:05:51;;;;;;;11.63;7.18;;;;;;;9.63;67.62;100483.88;5055436;28;20056;-62
2022/03/11 06:08:22;;;;;;;12.27;7.43;;;;;;;9.50;68.03;100479.28;5056759;28;20412;-62
2022/03/11 06:10:49;;;;;;;12.38;7.35;;;;;;;9.35;68.46;100483.19;5056564;28;20492;-62
2022/03/11 06:13:16;;;;;;;12.60;7.25;;;;;;;9.44;68.07;100489.56;5056878;28;20127;-62
2022/03/11 06:15:45;;;;;;;14.55;7.85;;;;;;;9.46;68.33;100479.09;5055243;28;20064;-63
2022/03/11 06:18:15;;;;;;;14.23;8.57;;;;;;;9.30;69.10;100488.00;5056646;28;20116;-62
2022/03/11 06:20:42;;;;;;;12.85;7.75;;;;;;;9.25;68.87;100482.63;5055037;28;20045;-62
2022/03/11 06:23:10;;;;;;;13.75;8.07;;;;;;;9.20;69.24;100482.75;5056744;28;20048;-62
2022/03/11 06:25:37;;;;;;;15.60;7.32;;;;;;;9.29;69.23;100478.97;5056454;28;20056;-62
2022/03/11 06:28:04;;;;;;;11.95;7.07;;;;;;;9.29;68.96;100472.63;5056798;28;20053;-63
2022/03/11 06:30:32;;;;;;;14.15;7.30;;;;;;;9.28;68.82;100476.50;5054179;28;20052;-61
2022/03/11 06:32:59;;;;;;;11.10;7.32;;;;;;;9.38;68.74;100479.03;5036665;28;20525;-61
2022/03/11 06:35:26;;;;;;;14.45;7.47;;;;;;;9.27;68.95;100477.63;5036478;28;20128;-62
2022/03/11 06:37:54;;;;;;;11.63;7.15;;;;;;;9.36;68.98;100467.53;5036700;28;20053;-62
2022/03/11 06:40:21;;;;;;;11.55;7.03;;;;;;;9.32;68.90;100472.00;5036003;28;20041;-61
2022/03/11 06:42:49;;;;;;;14.32;7.28;;;;;;;9.18;69.65;100468.50;5035119;28;20049;-62
2022/03/11 06:45:17;;;;;;;15.05;7.10;;;;;;;9.32;69.21;100472.00;5036213;28;20058;-62
2022/03/11 06:47:46;;;;;;;11.73;7.20;;;;;;;9.66;67.91;100478.56;5035923;28;20504;-62
2022/03/11 06:50:15;;;;;;;15.23;6.97;;;;;;;9.66;67.56;100467.56;5035945;28;20052;-63
2022/03/11 06:52:43;;;;;;;12.90;6.60;;;;;;;9.80;67.05;100459.25;5036389;28;20053;-64
2022/03/11 06:55:15;;;;;;;11.52;7.10;;;;;;;9.86;67.32;100463.50;5033935;28;20060;-62
2022/03/11 06:57:42;;;;;;;10.73;7.05;;;;;;;9.74;67.86;100461.34;5036095;28;20060;-65
2022/03/11 07:00:09;;;;;;;13.85;7.13;;;;;;;9.55;68.27;100468.97;5035909;28;20584;-62
2022/03/11 07:02:41;;;;;;;12.23;7.03;;;;;;;9.57;68.10;100457.66;5035807;28;20049;-62
2022/03/11 07:05:09;;;;;;;10.70;6.50;;;;;;;9.72;67.58;100451.75;5034842;28;20075;-63
2022/03/11 07:07:37;;;;;;;12.13;6.68;;;;;;;9.92;67.12;100459.50;5035883;28;20076;-63
2022/03/11 07:10:12;;;;;;;12.27;6.75;;;;;;;9.69;67.54;100472.44;5035399;28;20534;-63
2022/03/11 07:12:39;;;;;;;15.40;6.68;;;;;;;9.58;67.92;100470.25;5035832;28;20061;-64
2022/03/11 07:15:07;;;;;;;12.80;6.50;;;;;;;9.68;67.79;100459.81;5036142;28;20049;-63
2022/03/11 07:17:35;;;;;;;15.57;6.75;;;;;;;9.90;67.09;100450.75;5034853;28;20049;-63
2022/03/11 07:20:04;;;;;;;8.38;5.70;;;;;;;9.99;66.79;100448.84;5035602;28;20064;-63
2022/03/11 07:22:34;;;;;;;11.52;6.15;;;;;;;9.88;66.78;100453.81;5034624;28;20053;-62
2022/03/11 07:25:02;;;;;;;14.38;6.13;;;;;;;9.87;67.13;100445.84;5035638;28;20068;-62
2022/03/11 07:27:30;;;;;;;10.18;6.18;;;;;;;9.79;67.62;100446.63;5035750;28;20408;-63
2022/03/11 07:29:57;;;;;;;13.00;6.18;;;;;;;10.04;66.54;100441.25;5035408;28;20061;-63
2022/03/11 07:32:24;;;;;;;14.43;7.18;;;;;;;9.99;66.63;100433.16;5051310;28;20056;-62
2022/03/11 07:34:52;;;;;;;13.30;6.47;;;;;;;10.20;66.26;100436.19;5055464;28;20052;-63
2022/03/11 07:37:21;;;;;;;9.23;5.85;;;;;;;10.15;66.12;100439.91;5055559;28;20053;-61
2022/03/11 07:39:48;;;;;;;9.98;5.88;;;;;;;10.08;66.62;100438.69;5055277;28;20045;-63
2022/03/11 07:42:16;;;;;;;15.15;6.70;;;;;;;10.15;66.21;100437.16;5054440;28;20045;-63
2022/03/11 07:44:44;;;;;;;9.40;5.72;;;;;;;10.39;66.20;100427.69;5055250;28;20056;-62
2022/03/11 07:47:11;;;;;;;9.52;5.82;;;;;;;10.63;65.02;100423.38;5055602;28;20048;-62
2022/03/11 07:49:39;;;;;;;13.45;5.60;;;;;;;10.40;65.07;100421.03;5055827;28;20067;-62
2022/03/11 07:52:07;;;;;;;12.73;5.85;;;;;;;10.32;65.42;100416.31;5055140;28;20053;-63
2022/03/11 07:54:34;;;;;;;13.02;5.95;;;;;;;10.61;65.15;100411.88;5055061;28;20053;-62
2022/03/11 07:57:01;;;;;;;11.45;5.53;;;;;;;10.70;64.39;100409.94;5055507;28;20045;-63
2022/03/11 07:59:33;;;;;;;8.98;5.32;;;;;;;10.54;64.63;100410.72;5055208;28;20045;-63
2022/03/11 08:02:00;;;;;;;10.90;5.20;;;;;;;10.73;64.45;100405.72;5055260;28;20427;-63
2022/03/11 08:04:29;;;;;;;15.20;5.35;;;;;;;10.43;64.87;100407.44;5054841;28;20057;-63
2022/03/11 08:06:59;;;;;;;9.88;4.60;;;;;;;10.40;65.37;100402.59;5036681;28;20417;-62
2022/03/11 08:09:28;;;;;;;10.35;4.93;;;;;;;10.49;65.15;100399.84;5054942;28;20044;-62
2022/03/11 08:11:55;;;;;;;8.90;5.35;;;;;;;10.80;64.14;100398.59;5054802;28;20045;-61
2022/03/11 08:14:23;;;;;;;13.57;4.78;;;;;;;10.87;63.66;100401.69;5054774;28;20497;-62
2022/03/11 08:16:50;;;;;;;12.35;5.78;;;;;;;11.04;63.45;100403.63;5054964;28;20542;-62
2022/03/11 08:19:18;;;;;;;10.65;4.60;;;;;;;11.14;62.83;100392.31;5054605;28;20057;-62
2022/03/11 08:21:52;;;;;;;11.82;5.00;;;;;;;10.93;63.25;100397.63;5054441;28;20056;-62
2022/03/11 08:24:21;;;;;;;9.23;4.22;;;;;;;10.88;63.51;100400.56;5054632;28;20520;-62
2022/03/11 08:26:49;;;;;;;9.90;5.05;;;;;;;11.03;63.15;100394.59;5054857;28;20388;-63
2022/03/11 08:29:17;;;;;;;11.35;4.80;;;;;;;11.23;62.33;100387.59;5054769;28;20060;-61
2022/03/11 08:31:46;;;;;;;15.32;4.70;;;;;;;11.23;62.37;100373.78;5042612;28;20409;-63
2022/03/11 08:34:15;;;;;;;8.50;4.10;;;;;;;11.12;62.73;100373.31;5034772;28;20061;-62
2022/03/11 08:36:42;;;;;;;7.70;3.90;;;;;;;11.17;62.32;100369.59;5034781;28;20066;-62
2022/03/11 08:39:10;;;;;;;8.38;3.80;;;;;;;11.05;62.77;100373.00;5034662;28;20057;-62
2022/03/11 08:41:37;;;;;;;9.77;3.70;;;;;;;10.99;62.82;100376.25;5034480;28;20061;-62
2022/03/11 08:44:06;;;;;;;6.47;3.50;;;;;;;11.05;63.14;100366.69;5035207;28;20061;-63
2022/03/11 08:46:35;;;;;;;6.43;3.42;;;;;;;11.32;61.99;100367.16;5037352;28;20514;-62
2022/03/11 08:49:02;;;;;;;7.00;3.08;;;;;;;11.05;62.51;100364.72;5037198;28;20053;-64
2022/03/11 08:51:30;;;;;;;8.80;3.40;;;;;;;11.14;62.32;100365.53;5038673;28;20408;-62
2022/03/11 08:53:57;;;;;;;6.53;3.25;;;;;;;11.17;61.97;100358.56;5038596;28;20053;-62
2022/03/11 08:56:25;;;;;;;4.65;2.70;;;;;;;11.15;62.28;100363.59;5038434;28;20048;-62
2022/03/11 08:58:52;;;;;;;6.10;3.22;;;;;;;11.17;62.19;100356.63;5038573;28;20056;-63
2022/03/11 09:01:20;;;;;;;6.95;2.63;;;;;;;11.25;62.02;100353.03;5038114;28;20065;-63
2022/03/11 09:03:47;;;;;;;9.20;3.05;;;;;;;11.55;61.29;100355.91;5038340;28;20057;-62
2022/03/11 09:06:15;;;;;;;5.88;2.95;;;;;;;11.42;61.53;100346.69;5038340;28;20488;-62
2022/03/11 09:08:44;;;;;;;6.03;2.55;;;;;;;11.50;60.88;100345.88;5038320;28;20052;-62
2022/03/11 09:11:12;;;;;;;5.35;2.85;;;;;;;11.71;60.40;100340.47;5037496;28;20042;-62
2022/03/11 09:13:39;;;;;;;8.60;2.90;;;;;;;11.61;60.23;100346.31;5038663;28;20072;-62
2022/03/11 09:16:07;;;;;;;4.97;2.42;;;;;;;11.66;60.28;100344.22;5038071;28;20053;-63
2022/03/11 09:18:41;;;;;;;6.70;2.53;;;;;;;11.61;60.63;100338.84;5037894;28;20060;-63
2022/03/11 09:21:08;;;;;;;7.50;2.47;;;;;;;11.71;60.24;100341.28;5036480;28;20053;-62
2022/03/11 09:23:36;;;;;;;8.15;2.60;;;;;;;11.70;60.15;100342.41;5037980;28;20053;-62
2022/03/11 09:26:04;;;;;;;14.05;2.88;;;;;;;11.92;59.90;100335.84;5037849;28;20060;-63
2022/03/11 09:28:31;;;;;;;10.77;2.60;;;;;;;12.20;59.06;100337.00;5038056;28;20061;-62
2022/03/11 09:31:00;;;;;;;8.93;2.90;;;;;;;12.26;59.09;100344.75;5043100;28;20444;-63
2022/03/11 09:33:27;;;;;;;6.78;2.78;;;;;;;12.60;57.63;100345.69;5056195;28;20053;-63
2022/03/11 09:35:55;;;;;;;5.30;2.30;;;;;;;12.68;56.67;100337.34;5057717;28;20045;-63
2022/03/11 09:38:22;;;;;;;8.45;2.70;;;;;;;12.60;57.30;100334.63;5057524;28;20065;-63
2022/03/11 09:40:51;;;;;;;7.47;2.42;;;;;;;12.93;56.52;100339.09;5057017;28;20041;-63
2022/03/11 09:43:18;;;;;;;7.72;2.40;;;;;;;13.06;55.97;100332.50;5057525;28;20045;-62
2022/03/11 09:45:46;;;;;;;6.25;2.53;;;;;;;12.65;56.86;100337.19;5057574;28;20045;-63
2022/03/11 09:48:17;;;;;;;4.72;2.47;;;;;;;12.84;56.31;100326.47;5056328;28;20056;-62
2022/03/11 09:50:44;;;;;;;6.88;2.38;;;;;;;12.91;56.46;100321.22;5056334;28;20063;-63
2022/03/11 09:53:12;;;;;;;5.30;2.47;;;;;;;12.74;56.47;100326.91;5057921;28;20045;-63
2022/03/11 09:55:40;;;;;;;8.65;2.22;;;;;;;12.78;56.52;100323.09;5057083;28;20057;-63
2022/03/11 09:58:07;;;;;;;6.03;2.38;;;;;;;12.87;56.52;100323.03;5056262;28;20045;-62
2022/03/11 10:00:35;;;;;;;4.63;2.30;;;;;;;13.12;55.75;100316.50;5055294;28;20060;-62
2022/03/11 10:03:03;;;;;;;8.10;2.83;;;;;;;13.09;55.81;100311.66;5056972;28;20053;-63
2022/03/11 10:05:48;;;;;;;9.13;2.72;;;;;;;13.35;55.36;100288.09;5055946;28;20048;-63
2022/03/11 10:08:49;;;;;;;6.72;2.50;;;;;;;13.31;55.49;100265.06;5055486;28;20049;-62
2022/03/11 10:11:22;;;;;;;5.43;2.63;;;;;;;13.13;57.08;100285.75;5055269;28;20053;-62
2022/03/11 10:13:51;;;;;;;7.28;2.50;;;;;;;12.97;58.58;100300.53;5056775;28;20048;-62
2022/03/11 10:16:23;;;;;;;5.97;2.70;;;;;;;12.62;59.96;100310.25;5057091;28;20057;-63
2022/03/11 10:18:59;;;;;;;7.55;2.38;;;;;;;12.61;60.47;100308.59;5055754;28;20052;-63
2022/03/11 10:21:28;;;;;;;5.35;2.70;;;;;;;12.76;60.61;100311.56;5056752;28;20053;-64
2022/03/11 10:23:56;;;;;;;10.43;2.50;;;;;;;13.15;59.70;100307.53;5056888;28;20049;-62
2022/03/11 10:26:50;;;;;;;6.20;2.85;;;;;;;13.08;59.61;100302.56;5056500;28;20504;-62
2022/03/11 10:29:20;;;;;;;9.98;2.63;;;;;;;13.10;58.99;100297.50;5055126;28;20065;-64
2022/03/11 10:31:50;;;;;;;5.25;2.30;;;;;;;13.44;58.30;100290.81;5043776;28;20060;-63
2022/03/11 10:34:31;;;;;;;10.25;2.42;;;;;;;13.80;57.35;100296.38;5036297;28;20401;-63
2022/03/11 10:37:07;;;;;;;6.07;2.55;;;;;;;13.72;57.01;100300.03;5036616;28;20057;-63
2022/03/11 10:39:41;;;;;;;7.68;2.35;;;;;;;13.53;57.31;100313.63;5036445;28;20057;-62
2022/03/11 10:42:11;;;;;;;6.88;2.45;;;;;;;13.51;57.53;100299.34;5034365;28;20695;-62
2022/03/11 10:45:03;;;;;;;8.38;2.60;;;;;;;13.26;58.32;100315.06;5036282;28;20069;-63
2022/03/11 10:47:33;;;;;;;8.13;2.63;;;;;;;13.19;58.53;100297.41;5036192;28;20053;-62
2022/03/11 10:50:05;;;;;;;4.45;2.45;;;;;;;13.74;57.20;100278.38;5035021;28;20517;-65
2022/03/11 10:52:35;;;;;;;6.72;2.83;;;;;;;13.37;59.11;100294.09;5035808;28;20068;-63
2022/03/11 10:55:33;;;;;;;9.98;3.22;;;;;;;13.35;60.45;100315.75;5036015;28;20413;-62
2022/03/11 10:58:04;;;;;;;10.05;3.40;;;;;;;13.35;61.29;100331.56;5034283;28;20057;-61
2022/03/11 11:00:33;;;;;;;11.15;3.10;;;;;;;13.28;62.30;100339.63;5035871;28;20061;-63
2022/03/11 11:03:06;;;;;;;10.18;3.67;;;;;;;13.41;62.11;100332.97;5035928;28;20053;-63
2022/03/11 11:05:35;;;;;;;7.75;3.50;;;;;;;13.50;62.57;100319.84;5036091;28;20511;-64
2022/03/11 11:08:04;;;;;;;7.63;3.40;;;;;;;13.66;62.46;100320.00;5035250;28;20064;-64
2022/03/11 11:10:34;;;;;;;8.85;3.30;;;;;;;13.40;63.56;100315.56;5035522;28;20449;-62
2022/03/11 11:13:01;;;;;;;8.50;3.07;;;;;;;13.24;64.09;100320.13;5035741;28;20049;-62
2022/03/11 11:15:28;;;;;;;6.65;3.50;;;;;;;13.21;63.76;100317.22;5033949;28;20288;-63
2022/03/11 11:18:00;;;;;;;8.48;3.35;;;;;;;13.17;63.87;100319.06;5035917;28;20052;-63
2022/03/11 11:20:38;;;;;;;8.85;3.60;;;;;;;13.16;64.04;100309.94;5034598;28;20057;-63
2022/03/11 11:23:08;;;;;;;6.25;3.42;;;;;;;13.10;64.45;100311.31;5035816;28;20075;-63
2022/03/11 11:25:36;;;;;;;7.93;3.67;;;;;;;12.98;64.41;100311.25;5035514;28;20056;-63